sensor_id;sensor_type;location;lat;lon;timestamp;temperature;humidity
18712;DHT22;9485;49.386;8.674;2022-10-23T00:01:29;17.30;94.80
18712;DHT22;9485;49.386;8.674;2022-10-23T00:06:52;17.40;94.40
18712;DHT22;9485;49.386;8.674;2022-10-23T00:12:14;17.50;94.50
18712;DHT22;9485;49.386;8.674;2022-10-23T00:17:35;17.70;94.40
18712;DHT22;9485;49.386;8.674;2022-10-23T00:22:56;17.90;94.30
18712;DHT22;9485;49.386;8.674;2022-10-23T00:28:18;18.10;94.20
18712;DHT22;9485;49.386;8.674;2022-10-23T00:33:39;18.20;93.60
18712;DHT22;9485;49.386;8.674;2022-10-23T00:38:59;18.20;93.50
18712;DHT22;9485;49.386;8.674;2022-10-23T00:50:31;18.00;92.40
18712;DHT22;9485;49.386;8.674;2022-10-23T00:55:52;17.90;92.90
18712;DHT22;9485;49.386;8.674;2022-10-23T01:01:19;17.80;92.90
18712;DHT22;9485;49.386;8.674;2022-10-23T01:06:44;17.70;92.80
18712;DHT22;9485;49.386;8.674;2022-10-23T01:12:18;17.50;92.70
18712;DHT22;9485;49.386;8.674;2022-10-23T01:17:50;17.40;92.90
18712;DHT22;9485;49.386;8.674;2022-10-23T01:23:41;17.20;92.90
18712;DHT22;9485;49.386;8.674;2022-10-23T01:29:19;17.20;92.60
18712;DHT22;9485;49.386;8.674;2022-10-23T01:34:49;17.00;92.80
18712;DHT22;9485;49.386;8.674;2022-10-23T01:40:20;16.80;92.90
18712;DHT22;9485;49.386;8.674;2022-10-23T01:45:48;16.70;93.00
18712;DHT22;9485;49.386;8.674;2022-10-23T01:51:14;16.60;93.10
18712;DHT22;9485;49.386;8.674;2022-10-23T01:56:38;16.50;93.30
18712;DHT22;9485;49.386;8.674;2022-10-23T02:02:03;16.50;93.30
18712;DHT22;9485;49.386;8.674;2022-10-23T02:07:26;16.40;93.40
18712;DHT22;9485;49.386;8.674;2022-10-23T02:12:50;16.20;93.50
18712;DHT22;9485;49.386;8.674;2022-10-23T02:18:29;16.20;93.60
18712;DHT22;9485;49.386;8.674;2022-10-23T02:24:00;16.10;93.60
18712;DHT22;9485;49.386;8.674;2022-10-23T02:29:27;16.00;93.70
18712;DHT22;9485;49.386;8.674;2022-10-23T02:34:53;16.00;93.90
18712;DHT22;9485;49.386;8.674;2022-10-23T02:40:15;16.00;94.10
18712;DHT22;9485;49.386;8.674;2022-10-23T02:45:43;16.00;94.20
18712;DHT22;9485;49.386;8.674;2022-10-23T02:51:15;16.00;94.10
18712;DHT22;9485;49.386;8.674;2022-10-23T02:56:44;15.90;94.10
18712;DHT22;9485;49.386;8.674;2022-10-23T03:02:18;15.90;94.20
18712;DHT22;9485;49.386;8.674;2022-10-23T03:07:43;15.90;94.50
18712;DHT22;9485;49.386;8.674;2022-10-23T03:13:05;16.00;94.80
18712;DHT22;9485;49.386;8.674;2022-10-23T03:18:33;16.10;95.00
18712;DHT22;9485;49.386;8.674;2022-10-23T03:23:56;16.20;95.10
18712;DHT22;9485;49.386;8.674;2022-10-23T03:29:24;16.40;95.10
18712;DHT22;9485;49.386;8.674;2022-10-23T03:34:45;16.50;95.00
18712;DHT22;9485;49.386;8.674;2022-10-23T03:40:08;16.60;94.80
18712;DHT22;9485;49.386;8.674;2022-10-23T03:45:29;16.70;94.80
18712;DHT22;9485;49.386;8.674;2022-10-23T03:50:50;16.80;94.90
18712;DHT22;9485;49.386;8.674;2022-10-23T03:56:12;16.90;94.80
18712;DHT22;9485;49.386;8.674;2022-10-23T04:01:33;17.00;94.70
18712;DHT22;9485;49.386;8.674;2022-10-23T04:06:54;17.10;94.60
18712;DHT22;9485;49.386;8.674;2022-10-23T04:12:16;17.20;94.30
18712;DHT22;9485;49.386;8.674;2022-10-23T04:17:36;17.10;94.00
18712;DHT22;9485;49.386;8.674;2022-10-23T04:22:57;17.10;94.00
18712;DHT22;9485;49.386;8.674;2022-10-23T04:28:19;17.00;93.80
18712;DHT22;9485;49.386;8.674;2022-10-23T04:33:40;17.00;93.70
18712;DHT22;9485;49.386;8.674;2022-10-23T04:39:01;16.90;93.80
18712;DHT22;9485;49.386;8.674;2022-10-23T04:44:22;16.90;94.10
18712;DHT22;9485;49.386;8.674;2022-10-23T04:49:43;16.80;94.00
18712;DHT22;9485;49.386;8.674;2022-10-23T04:55:13;16.80;94.00
18712;DHT22;9485;49.386;8.674;2022-10-23T05:00:42;16.80;94.00
18712;DHT22;9485;49.386;8.674;2022-10-23T05:06:03;16.70;93.90
18712;DHT22;9485;49.386;8.674;2022-10-23T05:11:43;16.70;94.10
18712;DHT22;9485;49.386;8.674;2022-10-23T05:17:10;16.70;93.90
18712;DHT22;9485;49.386;8.674;2022-10-23T05:22:36;16.70;93.70
18712;DHT22;9485;49.386;8.674;2022-10-23T05:28:03;16.70;93.80
18712;DHT22;9485;49.386;8.674;2022-10-23T05:33:26;16.60;93.80
18712;DHT22;9485;49.386;8.674;2022-10-23T05:38:47;16.60;93.70
18712;DHT22;9485;49.386;8.674;2022-10-23T05:44:10;16.60;93.90
18712;DHT22;9485;49.386;8.674;2022-10-23T05:49:48;16.50;93.90
18712;DHT22;9485;49.386;8.674;2022-10-23T05:55:34;16.50;93.90
18712;DHT22;9485;49.386;8.674;2022-10-23T06:01:21;16.40;94.10
18712;DHT22;9485;49.386;8.674;2022-10-23T06:06:51;16.40;94.10
18712;DHT22;9485;49.386;8.674;2022-10-23T06:12:12;16.40;94.10
18712;DHT22;9485;49.386;8.674;2022-10-23T06:17:36;16.40;94.10
18712;DHT22;9485;49.386;8.674;2022-10-23T06:22:58;16.30;94.20
18712;DHT22;9485;49.386;8.674;2022-10-23T06:28:55;16.30;94.10
18712;DHT22;9485;49.386;8.674;2022-10-23T06:34:15;16.20;94.20
18712;DHT22;9485;49.386;8.674;2022-10-23T06:39:40;16.20;94.00
18712;DHT22;9485;49.386;8.674;2022-10-23T06:45:21;16.10;93.90
18712;DHT22;9485;49.386;8.674;2022-10-23T06:51:04;16.10;94.10
18712;DHT22;9485;49.386;8.674;2022-10-23T06:56:34;16.10;94.30
18712;DHT22;9485;49.386;8.674;2022-10-23T07:01:59;16.10;94.40
18712;DHT22;9485;49.386;8.674;2022-10-23T07:07:20;16.10;94.60
18712;DHT22;9485;49.386;8.674;2022-10-23T07:12:43;16.20;94.70
18712;DHT22;9485;49.386;8.674;2022-10-23T07:18:25;16.30;94.80
18712;DHT22;9485;49.386;8.674;2022-10-23T07:24:05;16.40;95.00
18712;DHT22;9485;49.386;8.674;2022-10-23T07:29:32;16.50;95.10
18712;DHT22;9485;49.386;8.674;2022-10-23T07:34:55;16.60;95.10
18712;DHT22;9485;49.386;8.674;2022-10-23T07:40:23;16.80;95.30
18712;DHT22;9485;49.386;8.674;2022-10-23T07:45:48;17.00;95.50
18712;DHT22;9485;49.386;8.674;2022-10-23T07:51:24;17.20;95.50
18712;DHT22;9485;49.386;8.674;2022-10-23T07:56:51;17.40;95.50
18712;DHT22;9485;49.386;8.674;2022-10-23T08:02:20;17.50;95.40
18712;DHT22;9485;49.386;8.674;2022-10-23T08:07:42;17.60;95.20
18712;DHT22;9485;49.386;8.674;2022-10-23T08:13:03;17.80;95.30
18712;DHT22;9485;49.386;8.674;2022-10-23T08:18:43;17.90;95.30
18712;DHT22;9485;49.386;8.674;2022-10-23T08:24:05;18.20;95.50
18712;DHT22;9485;49.386;8.674;2022-10-23T08:29:32;18.50;95.90
18712;DHT22;9485;49.386;8.674;2022-10-23T08:34:54;18.90;95.70
18712;DHT22;9485;49.386;8.674;2022-10-23T08:40:18;19.30;95.20
18712;DHT22;9485;49.386;8.674;2022-10-23T08:46:16;19.50;94.90
18712;DHT22;9485;49.386;8.674;2022-10-23T08:52:01;19.80;94.40
18712;DHT22;9485;49.386;8.674;2022-10-23T08:57:29;20.00;94.30
18712;DHT22;9485;49.386;8.674;2022-10-23T09:02:54;20.50;95.00
18712;DHT22;9485;49.386;8.674;2022-10-23T09:08:32;21.30;94.80
18712;DHT22;9485;49.386;8.674;2022-10-23T09:14:26;22.10;92.20
18712;DHT22;9485;49.386;8.674;2022-10-23T09:20:00;22.90;90.80
18712;DHT22;9485;49.386;8.674;2022-10-23T09:25:37;23.50;91.90
18712;DHT22;9485;49.386;8.674;2022-10-23T09:31:05;24.30;91.80
18712;DHT22;9485;49.386;8.674;2022-10-23T09:36:28;25.30;90.50
18712;DHT22;9485;49.386;8.674;2022-10-23T09:41:50;26.10;90.90
18712;DHT22;9485;49.386;8.674;2022-10-23T09:47:10;26.90;88.80
18712;DHT22;9485;49.386;8.674;2022-10-23T09:52:38;27.50;88.20
18712;DHT22;9485;49.386;8.674;2022-10-23T09:58:00;28.20;85.30
18712;DHT22;9485;49.386;8.674;2022-10-23T10:03:22;28.90;82.10
18712;DHT22;9485;49.386;8.674;2022-10-23T10:08:53;29.30;80.80
18712;DHT22;9485;49.386;8.674;2022-10-23T10:14:34;29.50;78.00
18712;DHT22;9485;49.386;8.674;2022-10-23T10:20:28;29.50;73.50
18712;DHT22;9485;49.386;8.674;2022-10-23T10:26:06;29.20;69.50
18712;DHT22;9485;49.386;8.674;2022-10-23T10:31:47;28.70;72.40
18712;DHT22;9485;49.386;8.674;2022-10-23T10:37:24;28.10;70.90
18712;DHT22;9485;49.386;8.674;2022-10-23T10:43:01;27.40;71.60
18712;DHT22;9485;49.386;8.674;2022-10-23T10:48:40;26.80;72.70
18712;DHT22;9485;49.386;8.674;2022-10-23T10:54:44;26.40;72.10
18712;DHT22;9485;49.386;8.674;2022-10-23T11:00:15;26.00;73.60
18712;DHT22;9485;49.386;8.674;2022-10-23T11:05:42;25.80;76.40
18712;DHT22;9485;49.386;8.674;2022-10-23T11:11:12;25.70;75.50
18712;DHT22;9485;49.386;8.674;2022-10-23T11:16:38;25.70;75.10
18712;DHT22;9485;49.386;8.674;2022-10-23T11:22:09;25.60;77.20
18712;DHT22;9485;49.386;8.674;2022-10-23T11:33:56;25.40;76.60
18712;DHT22;9485;49.386;8.674;2022-10-23T11:39:31;25.40;74.40
18712;DHT22;9485;49.386;8.674;2022-10-23T11:44:59;25.40;77.60
18712;DHT22;9485;49.386;8.674;2022-10-23T11:50:26;25.30;78.20
18712;DHT22;9485;49.386;8.674;2022-10-23T11:56:02;25.20;77.30
18712;DHT22;9485;49.386;8.674;2022-10-23T12:01:30;25.10;76.00
18712;DHT22;9485;49.386;8.674;2022-10-23T12:06:56;25.20;78.60
18712;DHT22;9485;49.386;8.674;2022-10-23T12:12:30;25.50;82.00
18712;DHT22;9485;49.386;8.674;2022-10-23T12:17:54;26.10;79.90
18712;DHT22;9485;49.386;8.674;2022-10-23T12:23:48;26.70;82.40
18712;DHT22;9485;49.386;8.674;2022-10-23T12:29:37;27.10;78.30
18712;DHT22;9485;49.386;8.674;2022-10-23T12:35:30;27.40;77.60
18712;DHT22;9485;49.386;8.674;2022-10-23T12:41:11;27.40;74.10
18712;DHT22;9485;49.386;8.674;2022-10-23T12:46:33;27.40;72.30
18712;DHT22;9485;49.386;8.674;2022-10-23T12:52:00;27.30;75.90
18712;DHT22;9485;49.386;8.674;2022-10-23T12:57:23;27.40;77.10
18712;DHT22;9485;49.386;8.674;2022-10-23T13:02:56;27.50;76.10
18712;DHT22;9485;49.386;8.674;2022-10-23T13:08:19;27.60;72.80
18712;DHT22;9485;49.386;8.674;2022-10-23T13:14:00;27.80;75.80
18712;DHT22;9485;49.386;8.674;2022-10-23T13:19:23;27.90;75.10
18712;DHT22;9485;49.386;8.674;2022-10-23T13:24:45;27.90;74.10
18712;DHT22;9485;49.386;8.674;2022-10-23T13:30:28;27.90;74.80
18712;DHT22;9485;49.386;8.674;2022-10-23T13:35:59;27.90;70.80
18712;DHT22;9485;49.386;8.674;2022-10-23T13:41:21;27.90;70.00
18712;DHT22;9485;49.386;8.674;2022-10-23T13:46:42;27.80;74.30
18712;DHT22;9485;49.386;8.674;2022-10-23T13:52:09;27.70;72.60
18712;DHT22;9485;49.386;8.674;2022-10-23T13:57:31;27.50;69.90
18712;DHT22;9485;49.386;8.674;2022-10-23T14:02:52;27.30;71.90
18712;DHT22;9485;49.386;8.674;2022-10-23T14:08:14;27.00;73.20
18712;DHT22;9485;49.386;8.674;2022-10-23T14:13:35;26.90;72.70
18712;DHT22;9485;49.386;8.674;2022-10-23T14:18:56;26.70;73.50
18712;DHT22;9485;49.386;8.674;2022-10-23T14:24:18;26.40;73.50
18712;DHT22;9485;49.386;8.674;2022-10-23T14:29:39;26.20;72.80
18712;DHT22;9485;49.386;8.674;2022-10-23T14:35:00;26.00;73.70
18712;DHT22;9485;49.386;8.674;2022-10-23T14:40:23;25.80;73.80
18712;DHT22;9485;49.386;8.674;2022-10-23T14:45:44;25.60;73.20
18712;DHT22;9485;49.386;8.674;2022-10-23T14:51:12;25.40;73.70
18712;DHT22;9485;49.386;8.674;2022-10-23T14:56:37;25.20;73.90
18712;DHT22;9485;49.386;8.674;2022-10-23T15:01:59;25.10;73.30
18712;DHT22;9485;49.386;8.674;2022-10-23T15:07:20;25.00;74.00
18712;DHT22;9485;49.386;8.674;2022-10-23T15:12:42;24.90;74.50
18712;DHT22;9485;49.386;8.674;2022-10-23T15:18:02;24.80;73.80
18712;DHT22;9485;49.386;8.674;2022-10-23T15:23:23;24.80;74.80
18712;DHT22;9485;49.386;8.674;2022-10-23T15:28:45;24.80;74.00
18712;DHT22;9485;49.386;8.674;2022-10-23T15:34:07;24.70;73.90
18712;DHT22;9485;49.386;8.674;2022-10-23T15:39:30;24.60;73.40
18712;DHT22;9485;49.386;8.674;2022-10-23T15:44:54;24.50;73.50
18712;DHT22;9485;49.386;8.674;2022-10-23T15:50:15;24.50;73.90
18712;DHT22;9485;49.386;8.674;2022-10-23T15:55:36;24.50;74.60
18712;DHT22;9485;49.386;8.674;2022-10-23T16:01:00;24.40;74.70
18712;DHT22;9485;49.386;8.674;2022-10-23T16:06:24;24.30;73.10
18712;DHT22;9485;49.386;8.674;2022-10-23T16:11:45;24.20;74.60
18712;DHT22;9485;49.386;8.674;2022-10-23T16:17:06;24.10;75.30
18712;DHT22;9485;49.386;8.674;2022-10-23T16:22:27;24.10;75.30
18712;DHT22;9485;49.386;8.674;2022-10-23T16:27:48;23.90;75.30
18712;DHT22;9485;49.386;8.674;2022-10-23T16:33:09;23.80;75.50
18712;DHT22;9485;49.386;8.674;2022-10-23T16:38:30;23.70;75.60
18712;DHT22;9485;49.386;8.674;2022-10-23T16:43:51;23.70;75.80
18712;DHT22;9485;49.386;8.674;2022-10-23T16:49:28;23.70;76.30
18712;DHT22;9485;49.386;8.674;2022-10-23T16:54:50;23.60;75.80
18712;DHT22;9485;49.386;8.674;2022-10-23T17:00:11;23.60;75.60
18712;DHT22;9485;49.386;8.674;2022-10-23T17:05:34;23.70;75.60
18712;DHT22;9485;49.386;8.674;2022-10-23T17:11:05;23.80;74.80
18712;DHT22;9485;49.386;8.674;2022-10-23T17:16:29;23.90;73.20
18712;DHT22;9485;49.386;8.674;2022-10-23T17:21:54;24.00;74.00
18712;DHT22;9485;49.386;8.674;2022-10-23T17:27:15;24.10;73.00
18712;DHT22;9485;49.386;8.674;2022-10-23T17:32:35;24.30;74.50
18712;DHT22;9485;49.386;8.674;2022-10-23T17:37:57;24.30;73.70
18712;DHT22;9485;49.386;8.674;2022-10-23T17:43:18;24.40;73.50
18712;DHT22;9485;49.386;8.674;2022-10-23T17:48:39;24.30;73.60
18712;DHT22;9485;49.386;8.674;2022-10-23T17:54:06;24.10;74.10
18712;DHT22;9485;49.386;8.674;2022-10-23T17:59:29;23.60;74.00
18712;DHT22;9485;49.386;8.674;2022-10-23T18:04:50;22.90;75.30
18712;DHT22;9485;49.386;8.674;2022-10-23T18:10:12;22.20;76.90
18712;DHT22;9485;49.386;8.674;2022-10-23T18:15:33;21.60;79.00
18712;DHT22;9485;49.386;8.674;2022-10-23T18:20:56;21.20;80.80
18712;DHT22;9485;49.386;8.674;2022-10-23T18:26:21;20.80;82.30
18712;DHT22;9485;49.386;8.674;2022-10-23T18:31:43;20.50;83.90
18712;DHT22;9485;49.386;8.674;2022-10-23T18:37:06;20.20;85.10
18712;DHT22;9485;49.386;8.674;2022-10-23T18:42:28;19.90;86.30
18712;DHT22;9485;49.386;8.674;2022-10-23T18:47:49;19.80;87.70
18712;DHT22;9485;49.386;8.674;2022-10-23T18:53:09;19.70;88.60
18712;DHT22;9485;49.386;8.674;2022-10-23T18:58:31;19.70;89.50
18712;DHT22;9485;49.386;8.674;2022-10-23T19:03:52;19.60;90.10
18712;DHT22;9485;49.386;8.674;2022-10-23T19:09:13;19.60;90.50
18712;DHT22;9485;49.386;8.674;2022-10-23T19:14:36;19.60;90.80
18712;DHT22;9485;49.386;8.674;2022-10-23T19:20:00;19.70;91.00
18712;DHT22;9485;49.386;8.674;2022-10-23T19:25:25;19.70;91.20
18712;DHT22;9485;49.386;8.674;2022-10-23T19:30:48;19.70;91.30
18712;DHT22;9485;49.386;8.674;2022-10-23T19:36:09;19.80;91.40
18712;DHT22;9485;49.386;8.674;2022-10-23T19:41:30;19.80;91.40
18712;DHT22;9485;49.386;8.674;2022-10-23T19:46:52;19.90;91.40
18712;DHT22;9485;49.386;8.674;2022-10-23T19:52:12;20.00;91.30
18712;DHT22;9485;49.386;8.674;2022-10-23T19:57:33;20.10;91.30
18712;DHT22;9485;49.386;8.674;2022-10-23T20:02:57;20.10;91.30
18712;DHT22;9485;49.386;8.674;2022-10-23T20:08:18;20.10;91.10
18712;DHT22;9485;49.386;8.674;2022-10-23T20:13:38;20.20;91.20
18712;DHT22;9485;49.386;8.674;2022-10-23T20:19:03;20.20;91.30
18712;DHT22;9485;49.386;8.674;2022-10-23T20:24:26;20.20;91.00
18712;DHT22;9485;49.386;8.674;2022-10-23T20:29:46;20.20;91.20
18712;DHT22;9485;49.386;8.674;2022-10-23T20:35:09;20.20;91.20
18712;DHT22;9485;49.386;8.674;2022-10-23T20:40:30;20.30;91.10
18712;DHT22;9485;49.386;8.674;2022-10-23T20:45:50;20.30;91.20
18712;DHT22;9485;49.386;8.674;2022-10-23T20:51:15;20.30;91.20
18712;DHT22;9485;49.386;8.674;2022-10-23T20:56:37;20.40;91.00
18712;DHT22;9485;49.386;8.674;2022-10-23T21:01:58;20.40;91.20
18712;DHT22;9485;49.386;8.674;2022-10-23T21:07:20;20.50;91.30
18712;DHT22;9485;49.386;8.674;2022-10-23T21:12:41;20.50;91.10
18712;DHT22;9485;49.386;8.674;2022-10-23T21:18:02;20.50;91.20
18712;DHT22;9485;49.386;8.674;2022-10-23T21:23:24;20.50;91.10
18712;DHT22;9485;49.386;8.674;2022-10-23T21:28:45;20.50;91.20
18712;DHT22;9485;49.386;8.674;2022-10-23T21:34:06;20.50;91.30
18712;DHT22;9485;49.386;8.674;2022-10-23T21:39:28;20.40;91.30
18712;DHT22;9485;49.386;8.674;2022-10-23T21:44:49;20.50;91.30
18712;DHT22;9485;49.386;8.674;2022-10-23T21:50:09;20.40;91.40
18712;DHT22;9485;49.386;8.674;2022-10-23T21:55:32;20.30;91.40
18712;DHT22;9485;49.386;8.674;2022-10-23T22:00:53;20.30;91.30
18712;DHT22;9485;49.386;8.674;2022-10-23T22:06:16;20.20;91.30
18712;DHT22;9485;49.386;8.674;2022-10-23T22:11:39;20.10;91.30
18712;DHT22;9485;49.386;8.674;2022-10-23T22:16:59;20.00;91.40
18712;DHT22;9485;49.386;8.674;2022-10-23T22:22:20;19.90;91.50
18712;DHT22;9485;49.386;8.674;2022-10-23T22:27:42;19.80;91.60
18712;DHT22;9485;49.386;8.674;2022-10-23T22:33:03;19.70;91.70
18712;DHT22;9485;49.386;8.674;2022-10-23T22:38:23;19.60;91.90
18712;DHT22;9485;49.386;8.674;2022-10-23T22:43:45;19.60;92.00
18712;DHT22;9485;49.386;8.674;2022-10-23T22:49:07;19.60;92.00
18712;DHT22;9485;49.386;8.674;2022-10-23T22:54:27;19.50;92.10
18712;DHT22;9485;49.386;8.674;2022-10-23T22:59:50;19.50;92.10
18712;DHT22;9485;49.386;8.674;2022-10-23T23:05:11;19.30;92.10
18712;DHT22;9485;49.386;8.674;2022-10-23T23:10:32;19.40;92.20
18712;DHT22;9485;49.386;8.674;2022-10-23T23:15:54;19.30;92.20
18712;DHT22;9485;49.386;8.674;2022-10-23T23:21:17;19.30;92.20
18712;DHT22;9485;49.386;8.674;2022-10-23T23:26:38;19.20;92.20
18712;DHT22;9485;49.386;8.674;2022-10-23T23:32:00;19.10;92.40
18712;DHT22;9485;49.386;8.674;2022-10-23T23:37:24;19.10;92.40
18712;DHT22;9485;49.386;8.674;2022-10-23T23:42:44;19.00;92.40
18712;DHT22;9485;49.386;8.674;2022-10-23T23:48:06;18.90;92.50
18712;DHT22;9485;49.386;8.674;2022-10-23T23:53:27;18.90;92.50
18712;DHT22;9485;49.386;8.674;2022-10-23T23:58:48;18.80;92.70
